Time;durP1;ratioP1;P1;durP2;ratioP2;P2;SDS_P1;SDS_P2;PMS_P1;PMS_P2;Temp;Humidity;BMP_temperature;BMP_pressure;BME280_temperature;BME280_humidity;BME280_pressure;Samples;Min_cycle;Max_cycle;Signal;HPM_P1;HPM_P2
2023/12/13 00:01:46;;;;;;;9.90;6.97;;;;;;;;;;6266927;22;20166;-57
2023/12/13 00:04:12;;;;;;;10.50;7.13;;;;;;;;;;6266377;22;20198;-58
2023/12/13 00:06:39;;;;;;;12.50;7.77;;;;;;;;;;6267123;22;20186;-57
2023/12/13 00:09:08;;;;;;;10.37;6.80;;;;;;;;;;6265148;22;20218;-57
2023/12/13 00:11:35;;;;;;;11.33;6.57;;;;;;;;;;6266518;22;20203;-57
2023/12/13 00:14:02;;;;;;;10.30;6.70;;;;;;;;;;6267592;22;20144;-57
2023/12/13 00:16:28;;;;;;;8.33;6.23;;;;;;;;;;6267277;22;20149;-56
2023/12/13 00:18:54;;;;;;;10.77;7.33;;;;;;;;;;6268066;22;20218;-56
2023/12/13 00:21:20;;;;;;;10.70;7.20;;;;;;;;;;6270282;22;20148;-58
2023/12/13 00:23:46;;;;;;;9.53;6.33;;;;;;;;;;6269136;22;20167;-55
2023/12/13 00:26:16;;;;;;;12.87;7.67;;;;;;;;;;6270976;22;20628;-56
2023/12/13 00:28:42;;;;;;;9.70;6.50;;;;;;;;;;6273607;22;20190;-58
2023/12/13 00:31:09;;;;;;;10.40;7.30;;;;;;;;;;6273438;22;20190;-59
2023/12/13 00:33:35;;;;;;;10.10;6.87;;;;;;;;;;6273328;22;20214;-57
2023/12/13 00:36:02;;;;;;;11.27;7.47;;;;;;;;;;6273946;22;20151;-59
2023/12/13 00:38:28;;;;;;;10.33;6.47;;;;;;;;;;6272902;22;20412;-59
2023/12/13 00:40:55;;;;;;;13.00;6.93;;;;;;;;;;6270356;22;20155;-56
2023/12/13 00:43:21;;;;;;;9.30;6.57;;;;;;;;;;6270840;22;20156;-57
2023/12/13 00:45:48;;;;;;;10.73;7.30;;;;;;;;;;6272028;22;20143;-59
2023/12/13 00:48:15;;;;;;;11.10;7.37;;;;;;;;;;6273168;22;20161;-55
2023/12/13 00:50:42;;;;;;;10.50;6.67;;;;;;;;;;6270104;22;20561;-59
2023/12/13 00:53:08;;;;;;;9.57;7.00;;;;;;;;;;6272216;22;20231;-59
2023/12/13 00:55:34;;;;;;;10.57;6.77;;;;;;;;;;6272109;22;20164;-59
2023/12/13 00:58:00;;;;;;;10.17;6.73;;;;;;;;;;6272545;22;20139;-58
2023/12/13 01:00:26;;;;;;;7.83;6.10;;;;;;;;;;6273014;22;20133;-57
2023/12/13 01:02:53;;;;;;;10.13;6.60;;;;;;;;;;6270760;22;20150;-58
2023/12/13 01:05:19;;;;;;;9.03;6.63;;;;;;;;;;6270206;22;20158;-57
2023/12/13 01:07:45;;;;;;;8.37;6.00;;;;;;;;;;6270574;22;20171;-59
2023/12/13 01:10:11;;;;;;;8.83;6.07;;;;;;;;;;6271866;22;20167;-59
2023/12/13 01:12:37;;;;;;;8.17;6.07;;;;;;;;;;6276419;22;20223;-59
2023/12/13 01:15:04;;;;;;;7.07;5.63;;;;;;;;;;6276100;22;20603;-59
2023/12/13 01:17:32;;;;;;;5.83;5.00;;;;;;;;;;6276852;22;20152;-59
2023/12/13 01:19:59;;;;;;;6.97;5.33;;;;;;;;;;6277012;22;20144;-55
2023/12/13 01:22:25;;;;;;;6.60;5.33;;;;;;;;;;6276743;22;20238;-59
2023/12/13 01:24:51;;;;;;;6.80;4.63;;;;;;;;;;6277122;22;20141;-59
2023/12/13 01:27:17;;;;;;;6.23;4.13;;;;;;;;;;6274476;22;20526;-56
2023/12/13 01:29:43;;;;;;;5.07;3.80;;;;;;;;;;6272426;22;20167;-57
2023/12/13 01:32:09;;;;;;;7.23;4.70;;;;;;;;;;6271821;22;20565;-56
2023/12/13 01:34:35;;;;;;;5.70;4.30;;;;;;;;;;6272243;22;20498;-58
2023/12/13 01:37:02;;;;;;;6.07;4.07;;;;;;;;;;6271952;22;20148;-56
2023/12/13 01:39:28;;;;;;;4.57;3.67;;;;;;;;;;6269688;22;20188;-58
2023/12/13 01:41:54;;;;;;;3.73;3.43;;;;;;;;;;6271415;22;20424;-58
2023/12/13 01:44:20;;;;;;;5.33;3.90;;;;;;;;;;6268698;22;20745;-54
2023/12/13 01:46:47;;;;;;;5.03;3.60;;;;;;;;;;6270972;22;20175;-58
2023/12/13 01:49:13;;;;;;;4.40;3.50;;;;;;;;;;6270000;22;20460;-58
2023/12/13 01:51:40;;;;;;;3.63;3.23;;;;;;;;;;6269300;22;20176;-58
2023/12/13 01:54:11;;;;;;;4.27;3.20;;;;;;;;;;6269924;22;20136;-58
2023/12/13 01:56:42;;;;;;;3.80;3.23;;;;;;;;;;6270298;22;20488;-55
2023/12/13 01:59:09;;;;;;;3.73;3.30;;;;;;;;;;6270633;22;20200;-58
2023/12/13 02:01:36;;;;;;;3.73;2.93;;;;;;;;;;6268562;22;20351;-59
2023/12/13 02:04:03;;;;;;;4.20;3.20;;;;;;;;;;6270539;22;20144;-58
2023/12/13 02:06:29;;;;;;;4.53;3.33;;;;;;;;;;6270833;22;20179;-58
2023/12/13 02:08:55;;;;;;;3.37;2.80;;;;;;;;;;6271217;22;20549;-58
2023/12/13 02:11:21;;;;;;;2.93;2.63;;;;;;;;;;6271031;22;20249;-58
2023/12/13 02:13:48;;;;;;;3.43;2.80;;;;;;;;;;6270276;22;20447;-58
2023/12/13 02:16:14;;;;;;;3.57;2.83;;;;;;;;;;6271097;22;20133;-59
2023/12/13 02:18:40;;;;;;;3.83;2.60;;;;;;;;;;6269479;22;20214;-58
2023/12/13 02:21:07;;;;;;;3.47;2.90;;;;;;;;;;6268353;22;20145;-58
2023/12/13 02:23:33;;;;;;;2.93;2.63;;;;;;;;;;6269253;22;20573;-56
2023/12/13 02:26:00;;;;;;;3.67;3.07;;;;;;;;;;6270245;22;20281;-56
2023/12/13 02:28:27;;;;;;;4.50;2.63;;;;;;;;;;6271250;22;20298;-56
2023/12/13 02:30:55;;;;;;;3.00;2.63;;;;;;;;;;6269860;22;20176;-58
2023/12/13 02:33:25;;;;;;;4.03;2.23;;;;;;;;;;6270652;22;20140;-58
2023/12/13 02:35:55;;;;;;;2.60;2.40;;;;;;;;;;6271376;22;20514;-58
2023/12/13 02:38:21;;;;;;;3.43;2.87;;;;;;;;;;6272533;22;20256;-57
2023/12/13 02:40:48;;;;;;;3.07;2.17;;;;;;;;;;6273444;22;20260;-59
2023/12/13 02:43:15;;;;;;;2.40;2.20;;;;;;;;;;6273477;22;20139;-58
2023/12/13 02:45:41;;;;;;;3.03;2.10;;;;;;;;;;6301137;22;20216;-55
2023/12/13 02:48:07;;;;;;;3.50;2.23;;;;;;;;;;6302682;22;20128;-58
2023/12/13 02:50:36;;;;;;;2.90;2.43;;;;;;;;;;6275786;22;20160;-56
2023/12/13 02:53:04;;;;;;;4.03;2.60;;;;;;;;;;6276977;22;20150;-58
2023/12/13 02:55:32;;;;;;;2.63;2.20;;;;;;;;;;6276451;22;20393;-56
2023/12/13 02:57:59;;;;;;;3.07;2.10;;;;;;;;;;6276369;22;20170;-58
2023/12/13 03:00:25;;;;;;;2.60;2.40;;;;;;;;;;6275208;22;20179;-58
2023/12/13 03:02:52;;;;;;;2.50;2.30;;;;;;;;;;6276167;22;20143;-58
2023/12/13 03:05:18;;;;;;;2.47;2.27;;;;;;;;;;6276163;22;20473;-58
2023/12/13 03:07:45;;;;;;;3.17;2.57;;;;;;;;;;6275160;22;20167;-58
2023/12/13 03:10:11;;;;;;;2.20;2.00;;;;;;;;;;6276533;22;20145;-56
2023/12/13 03:12:37;;;;;;;2.40;2.20;;;;;;;;;;6301856;22;20192;-59
2023/12/13 03:15:03;;;;;;;2.80;2.40;;;;;;;;;;6303737;22;20151;-58
2023/12/13 03:17:29;;;;;;;2.20;2.00;;;;;;;;;;6304245;22;20382;-58
2023/12/13 03:19:56;;;;;;;2.27;2.07;;;;;;;;;;6277416;22;20290;-57
2023/12/13 03:22:22;;;;;;;2.40;2.20;;;;;;;;;;6302885;22;20249;-59
2023/12/13 03:24:48;;;;;;;2.13;1.97;;;;;;;;;;6275868;22;20135;-58
2023/12/13 03:27:15;;;;;;;2.30;2.10;;;;;;;;;;6277005;22;20155;-55
2023/12/13 03:29:41;;;;;;;4.27;2.73;;;;;;;;;;6276879;22;20147;-58
2023/12/13 03:32:08;;;;;;;2.87;2.20;;;;;;;;;;6276993;22;20374;-56
2023/12/13 03:34:34;;;;;;;3.03;2.23;;;;;;;;;;6303895;22;20513;-56
2023/12/13 03:37:01;;;;;;;2.57;2.37;;;;;;;;;;6278495;22;20147;-57
2023/12/13 03:39:28;;;;;;;2.73;2.17;;;;;;;;;;6270246;22;20203;-54
2023/12/13 03:41:54;;;;;;;3.23;2.67;;;;;;;;;;6271302;22;20148;-55
2023/12/13 03:44:20;;;;;;;2.57;2.30;;;;;;;;;;6271382;22;20156;-59
2023/12/13 03:46:46;;;;;;;2.23;2.03;;;;;;;;;;6271500;22;20584;-58
2023/12/13 03:49:12;;;;;;;2.40;2.20;;;;;;;;;;6270971;22;20128;-58
2023/12/13 03:51:43;;;;;;;3.27;2.60;;;;;;;;;;6270365;22;20573;-57
2023/12/13 03:54:10;;;;;;;3.30;2.50;;;;;;;;;;6269125;22;20137;-57
2023/12/13 03:56:36;;;;;;;2.80;2.33;;;;;;;;;;6271919;22;20144;-58
2023/12/13 03:59:02;;;;;;;3.50;2.57;;;;;;;;;;6271741;22;20156;-58
2023/12/13 04:01:28;;;;;;;3.30;2.80;;;;;;;;;;6271428;22;20153;-57
2023/12/13 04:03:54;;;;;;;4.73;2.30;;;;;;;;;;6273258;22;20155;-58
2023/12/13 04:06:20;;;;;;;2.73;2.37;;;;;;;;;;6272336;22;20692;-56
2023/12/13 04:08:47;;;;;;;2.73;2.53;;;;;;;;;;6272204;22;20486;-56
2023/12/13 04:11:13;;;;;;;2.80;2.33;;;;;;;;;;6270253;22;20172;-54
2023/12/13 04:13:39;;;;;;;3.23;2.63;;;;;;;;;;6271635;22;20224;-57
2023/12/13 04:16:05;;;;;;;3.13;2.30;;;;;;;;;;6270538;22;20319;-57
2023/12/13 04:18:31;;;;;;;3.10;2.23;;;;;;;;;;6269429;22;20525;-58
2023/12/13 04:20:57;;;;;;;1.77;1.60;;;;;;;;;;6270777;22;20141;-57
2023/12/13 04:23:24;;;;;;;4.33;1.90;;;;;;;;;;6270925;22;20239;-57
2023/12/13 04:25:50;;;;;;;3.23;2.13;;;;;;;;;;6275118;22;20460;-57
2023/12/13 04:28:16;;;;;;;2.53;2.07;;;;;;;;;;6269397;22;20125;-56
2023/12/13 04:30:42;;;;;;;2.93;2.00;;;;;;;;;;6271149;22;20199;-55
2023/12/13 04:33:08;;;;;;;2.23;1.97;;;;;;;;;;6271512;22;20152;-56
2023/12/13 04:35:34;;;;;;;2.50;1.87;;;;;;;;;;6270505;22;20137;-56
2023/12/13 04:38:00;;;;;;;2.77;2.13;;;;;;;;;;6271689;22;20156;-56
2023/12/13 04:40:26;;;;;;;2.60;2.40;;;;;;;;;;6272252;22;20192;-54
2023/12/13 04:42:52;;;;;;;2.50;2.20;;;;;;;;;;6270881;22;20151;-57
2023/12/13 04:45:18;;;;;;;2.10;1.90;;;;;;;;;;6273055;22;20239;-58
2023/12/13 04:47:45;;;;;;;2.93;2.43;;;;;;;;;;6272630;22;20136;-58
2023/12/13 04:50:12;;;;;;;4.20;2.20;;;;;;;;;;6270881;22;20146;-57
2023/12/13 04:52:38;;;;;;;2.63;2.30;;;;;;;;;;6271679;22;20200;-56
2023/12/13 04:55:04;;;;;;;2.70;2.50;;;;;;;;;;6273630;22;20125;-59
2023/12/13 04:57:30;;;;;;;3.43;2.83;;;;;;;;;;6272511;22;20128;-57
2023/12/13 04:59:56;;;;;;;3.23;2.03;;;;;;;;;;6272460;22;20145;-58
2023/12/13 05:02:22;;;;;;;1.80;1.70;;;;;;;;;;6271552;22;20149;-59
2023/12/13 05:04:49;;;;;;;2.03;1.83;;;;;;;;;;6271752;22;20224;-59
2023/12/13 05:07:15;;;;;;;2.30;2.10;;;;;;;;;;6272740;22;20520;-58
2023/12/13 05:09:41;;;;;;;2.70;2.30;;;;;;;;;;6273403;22;20514;-59
2023/12/13 05:12:07;;;;;;;2.50;2.00;;;;;;;;;;6274469;22;20252;-57
2023/12/13 05:14:33;;;;;;;2.70;2.50;;;;;;;;;;6273447;22;20148;-55
2023/12/13 05:17:00;;;;;;;2.90;2.10;;;;;;;;;;6274283;22;20129;-57
2023/12/13 05:19:26;;;;;;;3.07;2.30;;;;;;;;;;6273759;22;20136;-57
2023/12/13 05:21:53;;;;;;;3.33;2.60;;;;;;;;;;6272770;22;20362;-57
2023/12/13 05:24:19;;;;;;;3.77;2.40;;;;;;;;;;6272122;22;20197;-59
2023/12/13 05:26:45;;;;;;;2.50;2.30;;;;;;;;;;6270736;22;20201;-56
2023/12/13 05:29:11;;;;;;;3.40;2.90;;;;;;;;;;6272995;22;20338;-56
2023/12/13 05:31:37;;;;;;;3.17;2.57;;;;;;;;;;6271606;22;20229;-57
2023/12/13 05:34:03;;;;;;;3.63;3.10;;;;;;;;;;6271336;22;20141;-56
2023/12/13 05:36:29;;;;;;;3.23;2.80;;;;;;;;;;6270546;22;20144;-57
2023/12/13 05:38:55;;;;;;;4.63;3.00;;;;;;;;;;6271806;22;20321;-55
2023/12/13 05:41:21;;;;;;;3.23;2.53;;;;;;;;;;6271791;22;20490;-59
2023/12/13 05:43:47;;;;;;;2.80;2.60;;;;;;;;;;6272434;22;20163;-56
2023/12/13 05:46:13;;;;;;;4.37;3.10;;;;;;;;;;6272297;22;20179;-57
2023/12/13 05:48:39;;;;;;;3.90;2.83;;;;;;;;;;6270700;22;20201;-58
2023/12/13 05:51:05;;;;;;;3.47;2.50;;;;;;;;;;6272692;22;20561;-58
2023/12/13 05:53:33;;;;;;;3.50;2.97;;;;;;;;;;6272824;22;20240;-56
2023/12/13 05:56:00;;;;;;;3.63;2.67;;;;;;;;;;6274069;22;20143;-57
2023/12/13 05:58:26;;;;;;;4.73;3.47;;;;;;;;;;6270390;22;20214;-58
2023/12/13 06:00:52;;;;;;;5.67;3.97;;;;;;;;;;6268000;22;20347;-56
2023/12/13 06:03:19;;;;;;;5.47;3.30;;;;;;;;;;6268664;22;20128;-58
2023/12/13 06:05:45;;;;;;;5.33;3.43;;;;;;;;;;6268573;22;20145;-57
2023/12/13 06:08:11;;;;;;;3.93;3.33;;;;;;;;;;6266636;22;20159;-58
2023/12/13 06:10:38;;;;;;;5.97;3.60;;;;;;;;;;6268457;22;20160;-58
2023/12/13 06:13:04;;;;;;;4.07;3.23;;;;;;;;;;6267800;22;20203;-55
2023/12/13 06:15:30;;;;;;;3.90;3.50;;;;;;;;;;6267755;22;20354;-57
2023/12/13 06:17:57;;;;;;;5.30;3.93;;;;;;;;;;6266872;22;20167;-55
2023/12/13 06:20:23;;;;;;;5.73;3.47;;;;;;;;;;6268402;22;20124;-58
2023/12/13 06:22:50;;;;;;;4.57;3.43;;;;;;;;;;6266498;22;20502;-58
2023/12/13 06:25:16;;;;;;;4.47;3.50;;;;;;;;;;6265319;22;20151;-56
2023/12/13 06:27:42;;;;;;;5.07;3.40;;;;;;;;;;6266974;22;20227;-58
2023/12/13 06:30:08;;;;;;;5.53;3.67;;;;;;;;;;6266530;22;20482;-58
2023/12/13 06:32:34;;;;;;;5.93;4.17;;;;;;;;;;6266221;22;20296;-57
2023/12/13 06:35:01;;;;;;;7.37;3.93;;;;;;;;;;6267255;22;20147;-55
2023/12/13 06:37:27;;;;;;;6.30;4.20;;;;;;;;;;6265392;22;20166;-59
2023/12/13 06:39:53;;;;;;;3.40;3.10;;;;;;;;;;6267429;22;20629;-57
2023/12/13 06:42:19;;;;;;;5.40;3.53;;;;;;;;;;6268285;22;20128;-58
2023/12/13 06:44:45;;;;;;;5.23;4.20;;;;;;;;;;6267461;22;20205;-59
2023/12/13 06:47:11;;;;;;;6.83;4.43;;;;;;;;;;6264926;22;20223;-56
2023/12/13 06:49:37;;;;;;;8.27;4.20;;;;;;;;;;6266571;22;20144;-59
2023/12/13 06:52:03;;;;;;;6.20;4.33;;;;;;;;;;6264399;22;20466;-56
2023/12/13 06:54:29;;;;;;;5.33;4.33;;;;;;;;;;6264549;22;20159;-58
2023/12/13 06:56:56;;;;;;;6.30;3.90;;;;;;;;;;6264382;22;20198;-58
2023/12/13 06:59:23;;;;;;;6.43;4.03;;;;;;;;;;6260760;22;20158;-56
2023/12/13 07:01:50;;;;;;;5.60;3.93;;;;;;;;;;6261116;22;20281;-57
2023/12/13 07:04:16;;;;;;;7.03;3.97;;;;;;;;;;6259110;22;20136;-56
2023/12/13 07:06:42;;;;;;;5.30;4.33;;;;;;;;;;6258640;22;20171;-56
2023/12/13 07:09:10;;;;;;;5.77;4.10;;;;;;;;;;6259270;22;20302;-56
2023/12/13 07:11:37;;;;;;;7.60;4.30;;;;;;;;;;6260359;22;20164;-55
2023/12/13 07:14:03;;;;;;;5.33;3.67;;;;;;;;;;6262110;22;20151;-57
2023/12/13 07:16:29;;;;;;;4.93;3.73;;;;;;;;;;6262311;22;20136;-56
2023/12/13 07:18:55;;;;;;;7.20;4.20;;;;;;;;;;6263871;22;20305;-56
2023/12/13 07:21:21;;;;;;;6.40;4.57;;;;;;;;;;6266352;22;20238;-57
2023/12/13 07:23:48;;;;;;;4.17;3.60;;;;;;;;;;6268190;22;20490;-57
2023/12/13 07:26:16;;;;;;;4.73;3.77;;;;;;;;;;6264182;22;20372;-58
2023/12/13 07:28:42;;;;;;;6.43;4.00;;;;;;;;;;6266595;22;20163;-56
2023/12/13 07:31:08;;;;;;;4.97;3.80;;;;;;;;;;6266325;22;20446;-55
2023/12/13 07:33:34;;;;;;;4.47;3.90;;;;;;;;;;6265052;22;20533;-57
2023/12/13 07:36:01;;;;;;;5.80;4.10;;;;;;;;;;6262234;22;20330;-58
2023/12/13 07:38:27;;;;;;;3.77;3.17;;;;;;;;;;6264718;22;20196;-58
2023/12/13 07:40:54;;;;;;;4.60;3.67;;;;;;;;;;6262268;22;20287;-58
2023/12/13 07:43:20;;;;;;;7.50;4.13;;;;;;;;;;6260545;22;20211;-57
2023/12/13 07:45:51;;;;;;;4.53;3.93;;;;;;;;;;6261671;22;20224;-54
2023/12/13 07:48:21;;;;;;;4.77;3.60;;;;;;;;;;6263160;22;20144;-55
2023/12/13 07:50:47;;;;;;;6.80;3.63;;;;;;;;;;6262932;22;20171;-57
2023/12/13 07:53:14;;;;;;;5.23;4.23;;;;;;;;;;6290437;22;20205;-54
2023/12/13 07:55:40;;;;;;;4.33;3.47;;;;;;;;;;6295476;22;20645;-55
2023/12/13 07:58:06;;;;;;;6.37;3.77;;;;;;;;;;6269435;22;20426;-57
2023/12/13 08:00:32;;;;;;;4.17;3.23;;;;;;;;;;6295462;22;20466;-58
2023/12/13 08:02:58;;;;;;;4.77;4.17;;;;;;;;;;6269002;22;20222;-54
2023/12/13 08:05:24;;;;;;;4.43;3.47;;;;;;;;;;6269644;22;20139;-57
2023/12/13 08:07:50;;;;;;;4.77;3.40;;;;;;;;;;6270898;22;20151;-57
2023/12/13 08:10:16;;;;;;;5.43;3.73;;;;;;;;;;6271045;22;20150;-56
2023/12/13 08:12:43;;;;;;;8.07;3.73;;;;;;;;;;6299431;22;20230;-57
2023/12/13 08:15:12;;;;;;;5.27;3.70;;;;;;;;;;6300490;22;20151;-57
2023/12/13 08:17:38;;;;;;;4.53;3.60;;;;;;;;;;6273149;22;20144;-57
2023/12/13 08:20:06;;;;;;;4.43;3.50;;;;;;;;;;6272537;22;20174;-56
2023/12/13 08:22:32;;;;;;;5.80;3.37;;;;;;;;;;6271988;22;20170;-57
2023/12/13 08:24:58;;;;;;;4.13;3.10;;;;;;;;;;6272995;22;20143;-57
2023/12/13 08:27:24;;;;;;;6.00;3.37;;;;;;;;;;6300462;22;20473;-55
2023/12/13 08:29:50;;;;;;;4.03;3.40;;;;;;;;;;6271104;22;20159;-55
2023/12/13 08:32:16;;;;;;;5.73;3.67;;;;;;;;;;6271179;22;20309;-54
2023/12/13 08:34:44;;;;;;;3.73;3.17;;;;;;;;;;6272721;22;20194;-58
2023/12/13 08:37:10;;;;;;;3.70;3.13;;;;;;;;;;6272619;22;20285;-58
2023/12/13 08:39:36;;;;;;;3.87;3.10;;;;;;;;;;6271155;22;20189;-58
2023/12/13 08:42:03;;;;;;;4.30;3.63;;;;;;;;;;6269587;22;20429;-58
2023/12/13 08:44:30;;;;;;;3.33;2.87;;;;;;;;;;6269214;22;20279;-58
2023/12/13 08:46:56;;;;;;;3.70;2.60;;;;;;;;;;6270416;22;20208;-58
2023/12/13 08:49:22;;;;;;;5.90;3.80;;;;;;;;;;6271404;22;20139;-56
2023/12/13 08:51:48;;;;;;;6.10;3.10;;;;;;;;;;6269892;22;20485;-56
2023/12/13 08:54:15;;;;;;;4.57;3.47;;;;;;;;;;6293394;22;20258;-57
2023/12/13 08:56:41;;;;;;;6.77;3.53;;;;;;;;;;6269647;22;20630;-58
2023/12/13 08:59:07;;;;;;;5.43;3.70;;;;;;;;;;6297572;22;20140;-56
2023/12/13 09:01:33;;;;;;;4.90;3.43;;;;;;;;;;6269432;22;20150;-56
2023/12/13 09:03:59;;;;;;;5.90;3.70;;;;;;;;;;6269760;22;20140;-57
2023/12/13 09:06:25;;;;;;;4.20;3.13;;;;;;;;;;6269437;22;20321;-58
2023/12/13 09:08:52;;;;;;;5.80;3.13;;;;;;;;;;6272306;22;20227;-54
2023/12/13 09:11:18;;;;;;;6.07;3.77;;;;;;;;;;6300131;22;20163;-55
2023/12/13 09:13:44;;;;;;;6.17;3.67;;;;;;;;;;6271918;22;20160;-57
2023/12/13 09:16:12;;;;;;;4.90;4.07;;;;;;;;;;6271051;22;20171;-59
2023/12/13 09:18:42;;;;;;;4.67;3.70;;;;;;;;;;6269381;22;20155;-56
2023/12/13 09:21:08;;;;;;;4.07;3.37;;;;;;;;;;6295055;22;20128;-57
2023/12/13 09:23:36;;;;;;;4.90;3.17;;;;;;;;;;6295288;22;20128;-58
2023/12/13 09:26:04;;;;;;;4.53;3.23;;;;;;;;;;6295868;22;20127;-57
2023/12/13 09:28:30;;;;;;;3.97;3.40;;;;;;;;;;6269476;22;20151;-56
2023/12/13 09:30:57;;;;;;;4.97;3.50;;;;;;;;;;6268805;22;20178;-55
2023/12/13 09:33:23;;;;;;;3.87;3.27;;;;;;;;;;6296604;22;20120;-56
2023/12/13 09:35:50;;;;;;;5.47;4.00;;;;;;;;;;6272268;22;20464;-56
2023/12/13 09:38:16;;;;;;;3.80;3.40;;;;;;;;;;6271324;22;20235;-55
2023/12/13 09:40:43;;;;;;;4.87;3.37;;;;;;;;;;6271431;22;20211;-57
2023/12/13 09:43:09;;;;;;;5.03;3.43;;;;;;;;;;6298710;22;20522;-55
2023/12/13 09:45:36;;;;;;;3.53;2.90;;;;;;;;;;6299499;22;20138;-57
2023/12/13 09:48:02;;;;;;;4.83;3.73;;;;;;;;;;6298366;22;20174;-58
2023/12/13 09:50:32;;;;;;;6.03;3.47;;;;;;;;;;6271944;22;20194;-56
2023/12/13 09:52:59;;;;;;;3.97;3.20;;;;;;;;;;6269380;22;20135;-55
2023/12/13 09:55:25;;;;;;;4.23;3.40;;;;;;;;;;6270601;22;20147;-57
2023/12/13 09:57:51;;;;;;;4.20;3.37;;;;;;;;;;6295439;22;20224;-58
2023/12/13 10:00:17;;;;;;;4.73;3.30;;;;;;;;;;6267720;22;20157;-57
2023/12/13 10:02:46;;;;;;;4.87;3.63;;;;;;;;;;6268976;22;20358;-57
2023/12/13 10:05:12;;;;;;;5.07;3.77;;;;;;;;;;6298916;22;20120;-55
2023/12/13 10:07:39;;;;;;;4.90;3.20;;;;;;;;;;6271064;22;20590;-58
2023/12/13 10:10:06;;;;;;;5.33;3.20;;;;;;;;;;6271690;22;20214;-56
2023/12/13 10:12:32;;;;;;;4.07;2.70;;;;;;;;;;6296092;22;20177;-54
2023/12/13 10:15:06;;;;;;;4.30;3.00;;;;;;;;;;6272250;22;20179;-58
2023/12/13 10:17:32;;;;;;;4.77;3.50;;;;;;;;;;6272673;22;20140;-58
2023/12/13 10:19:58;;;;;;;4.80;2.97;;;;;;;;;;6298534;22;20173;-54
2023/12/13 10:22:25;;;;;;;4.73;3.57;;;;;;;;;;6270823;22;20147;-55
2023/12/13 10:24:52;;;;;;;4.10;2.90;;;;;;;;;;6270938;22;20792;-56
2023/12/13 10:27:18;;;;;;;4.30;3.10;;;;;;;;;;6296003;22;20184;-54
2023/12/13 10:29:47;;;;;;;4.63;2.80;;;;;;;;;;6270271;22;20164;-58
2023/12/13 10:32:13;;;;;;;4.83;3.10;;;;;;;;;;6276552;22;20175;-58
2023/12/13 10:34:40;;;;;;;3.57;2.53;;;;;;;;;;6303614;22;20119;-54
2023/12/13 10:37:07;;;;;;;4.20;2.93;;;;;;;;;;6277867;22;20139;-58
2023/12/13 10:39:47;;;;;;;5.13;2.70;;;;;;;;;;6273208;22;20192;-58
2023/12/13 10:42:17;;;;;;;3.27;2.57;;;;;;;;;;6272951;22;20144;-56
2023/12/13 10:44:45;;;;;;;4.10;2.80;;;;;;;;;;6271871;22;20163;-59
2023/12/13 10:47:12;;;;;;;4.30;2.47;;;;;;;;;;6271007;22;20132;-59
2023/12/13 10:49:38;;;;;;;5.87;2.97;;;;;;;;;;6269993;22;20522;-57
2023/12/13 10:52:06;;;;;;;3.87;2.47;;;;;;;;;;6269421;22;20265;-58
2023/12/13 10:54:43;;;;;;;3.03;2.23;;;;;;;;;;6271757;22;20213;-58
2023/12/13 10:57:12;;;;;;;4.57;2.40;;;;;;;;;;6270091;22;20132;-57
2023/12/13 10:59:41;;;;;;;4.27;2.40;;;;;;;;;;6269707;22;20659;-62
2023/12/13 11:02:07;;;;;;;5.10;3.00;;;;;;;;;;6269528;22;20156;-61
2023/12/13 11:04:34;;;;;;;6.90;2.50;;;;;;;;;;6268777;22;20140;-60
2023/12/13 11:07:03;;;;;;;3.30;2.53;;;;;;;;;;6269885;22;20141;-58
2023/12/13 11:09:29;;;;;;;3.93;2.30;;;;;;;;;;6271181;22;20146;-58
2023/12/13 11:11:59;;;;;;;3.60;2.20;;;;;;;;;;6271405;22;20164;-58
2023/12/13 11:14:28;;;;;;;3.33;2.50;;;;;;;;;;6271708;22;20148;-58
2023/12/13 11:16:58;;;;;;;2.90;2.17;;;;;;;;;;6270908;22;20136;-57
2023/12/13 11:19:25;;;;;;;4.73;2.53;;;;;;;;;;6272740;22;20262;-56
2023/12/13 11:21:52;;;;;;;5.27;2.53;;;;;;;;;;6269905;22;20151;-58
2023/12/13 11:24:22;;;;;;;3.43;2.00;;;;;;;;;;6267592;22;20234;-56
2023/12/13 11:26:50;;;;;;;3.63;2.33;;;;;;;;;;6268250;22;20160;-57
2023/12/13 11:29:17;;;;;;;3.43;2.40;;;;;;;;;;6268284;22;20224;-58
2023/12/13 11:31:53;;;;;;;2.47;2.27;;;;;;;;;;6266421;22;20846;-59
2023/12/13 11:34:31;;;;;;;5.17;2.23;;;;;;;;;;6266997;22;20431;-54
2023/12/13 11:36:57;;;;;;;4.57;2.60;;;;;;;;;;6268141;22;20144;-55
2023/12/13 11:39:23;;;;;;;3.33;2.20;;;;;;;;;;6269532;22;20278;-58
2023/12/13 11:41:50;;;;;;;2.77;2.07;;;;;;;;;;6269695;22;20733;-58
2023/12/13 11:44:16;;;;;;;2.97;2.30;;;;;;;;;;6269513;22;20156;-57
2023/12/13 11:46:42;;;;;;;4.97;2.17;;;;;;;;;;6271554;22;20148;-57
2023/12/13 11:49:08;;;;;;;3.17;2.17;;;;;;;;;;6274544;22;20148;-57
2023/12/13 11:51:34;;;;;;;2.60;2.03;;;;;;;;;;6274074;22;20175;-54
2023/12/13 11:54:01;;;;;;;4.23;1.97;;;;;;;;;;6275484;22;20124;-58
2023/12/13 11:56:27;;;;;;;2.97;2.07;;;;;;;;;;6274603;22;20143;-59
2023/12/13 11:58:53;;;;;;;2.43;2.10;;;;;;;;;;6273874;22;20140;-56
2023/12/13 12:01:20;;;;;;;5.87;2.00;;;;;;;;;;6272640;22;20129;-56
2023/12/13 12:03:46;;;;;;;3.27;1.80;;;;;;;;;;6270565;22;20201;-56
2023/12/13 12:06:14;;;;;;;2.93;2.03;;;;;;;;;;6270896;22;20154;-56
2023/12/13 12:08:41;;;;;;;2.63;2.20;;;;;;;;;;6269379;22;20191;-58
2023/12/13 12:11:07;;;;;;;2.60;2.00;;;;;;;;;;6271017;22;20358;-59
2023/12/13 12:13:33;;;;;;;4.17;1.83;;;;;;;;;;6269190;22;20529;-57
2023/12/13 12:16:00;;;;;;;3.50;1.50;;;;;;;;;;6269046;22;20237;-56
2023/12/13 12:18:28;;;;;;;4.83;2.30;;;;;;;;;;6268227;22;20569;-57
2023/12/13 12:20:57;;;;;;;3.03;1.93;;;;;;;;;;6267510;22;20150;-58
2023/12/13 12:23:23;;;;;;;3.57;1.97;;;;;;;;;;6270135;22;20224;-58
2023/12/13 12:25:53;;;;;;;2.27;1.70;;;;;;;;;;6270793;22;20141;-57
2023/12/13 12:28:22;;;;;;;3.00;2.00;;;;;;;;;;6270128;22;20187;-57
2023/12/13 12:30:52;;;;;;;5.40;2.10;;;;;;;;;;6268734;22;20678;-58
2023/12/13 12:33:20;;;;;;;1.83;1.67;;;;;;;;;;6268348;22;20144;-59
2023/12/13 12:35:49;;;;;;;3.30;1.63;;;;;;;;;;6270425;22;20231;-58
2023/12/13 12:38:19;;;;;;;2.50;1.80;;;;;;;;;;6271626;22;20526;-59
2023/12/13 12:40:48;;;;;;;3.00;1.93;;;;;;;;;;6274483;22;20155;-55
2023/12/13 12:43:21;;;;;;;2.77;1.70;;;;;;;;;;6300781;22;20714;-58
2023/12/13 12:45:49;;;;;;;2.07;1.73;;;;;;;;;;6272672;22;20144;-59
2023/12/13 12:48:19;;;;;;;3.30;2.07;;;;;;;;;;6271697;22;20635;-58
2023/12/13 12:50:46;;;;;;;2.30;1.70;;;;;;;;;;6297034;22;20199;-57
2023/12/13 12:53:13;;;;;;;3.10;1.77;;;;;;;;;;6272202;22;20148;-59
2023/12/13 12:55:39;;;;;;;3.43;1.77;;;;;;;;;;6299402;22;20594;-57
2023/12/13 12:58:06;;;;;;;2.73;1.90;;;;;;;;;;6273541;22;20193;-56
2023/12/13 13:00:32;;;;;;;3.30;1.70;;;;;;;;;;6274972;22;20423;-58
2023/12/13 13:03:00;;;;;;;2.70;2.00;;;;;;;;;;6275015;22;20249;-57
2023/12/13 13:05:27;;;;;;;5.93;2.13;;;;;;;;;;6301108;22;20136;-59
2023/12/13 13:07:58;;;;;;;4.30;1.70;;;;;;;;;;6301791;22;20148;-58
2023/12/13 13:10:24;;;;;;;2.10;1.90;;;;;;;;;;6300619;22;20455;-61
2023/12/13 13:12:50;;;;;;;3.40;2.43;;;;;;;;;;6273195;22;20517;-61
2023/12/13 13:15:17;;;;;;;45.37;17.03;;;;;;;;;;6273458;22;20150;-60
2023/12/13 13:17:44;;;;;;;6.60;3.23;;;;;;;;;;6274402;22;20154;-57
2023/12/13 13:20:12;;;;;;;4.47;2.40;;;;;;;;;;6273866;22;20143;-57
2023/12/13 13:22:40;;;;;;;2.33;1.70;;;;;;;;;;6300156;22;20124;-59
2023/12/13 13:25:08;;;;;;;4.60;1.97;;;;;;;;;;6274213;22;20135;-59
2023/12/13 13:27:34;;;;;;;3.40;1.93;;;;;;;;;;6275124;22;20140;-56
2023/12/13 13:30:00;;;;;;;2.23;1.80;;;;;;;;;;6277896;22;20147;-58
2023/12/13 13:32:27;;;;;;;4.00;2.33;;;;;;;;;;6302397;22;20163;-56
2023/12/13 13:34:53;;;;;;;3.93;1.70;;;;;;;;;;6302376;22;20120;-58
2023/12/13 13:37:20;;;;;;;2.50;1.90;;;;;;;;;;6275602;22;20545;-58
2023/12/13 13:39:48;;;;;;;3.33;2.03;;;;;;;;;;6300610;22;20179;-59
2023/12/13 13:42:15;;;;;;;3.20;2.10;;;;;;;;;;6272128;22;20147;-57
2023/12/13 13:44:42;;;;;;;2.63;1.70;;;;;;;;;;6273041;22;20147;-57
2023/12/13 13:47:08;;;;;;;3.30;1.70;;;;;;;;;;6297811;22;20144;-59
2023/12/13 13:49:35;;;;;;;2.97;2.07;;;;;;;;;;6272657;22;20336;-53
2023/12/13 13:52:02;;;;;;;3.10;2.13;;;;;;;;;;6272354;22;20177;-59
2023/12/13 13:54:28;;;;;;;3.70;2.07;;;;;;;;;;6299395;22;20513;-54
2023/12/13 13:56:55;;;;;;;2.20;1.70;;;;;;;;;;6271815;22;20167;-56
2023/12/13 13:59:22;;;;;;;2.63;1.73;;;;;;;;;;6273866;22;20148;-58
2023/12/13 14:01:50;;;;;;;2.40;1.90;;;;;;;;;;6274395;22;20230;-59
2023/12/13 14:04:16;;;;;;;2.40;1.70;;;;;;;;;;6301050;22;20212;-58
2023/12/13 14:06:42;;;;;;;1.70;1.40;;;;;;;;;;6275141;22;20560;-57
2023/12/13 14:09:12;;;;;;;2.10;1.20;;;;;;;;;;6295091;22;20128;-59
2023/12/13 14:11:38;;;;;;;2.20;1.60;;;;;;;;;;6266982;22;20368;-57
2023/12/13 14:14:04;;;;;;;3.83;1.70;;;;;;;;;;6291490;22;20143;-57
2023/12/13 14:16:30;;;;;;;2.53;1.50;;;;;;;;;;6263244;22;20452;-59
2023/12/13 14:18:58;;;;;;;4.67;1.70;;;;;;;;;;6260932;22;20143;-57
2023/12/13 14:21:25;;;;;;;3.63;1.93;;;;;;;;;;6261337;22;20525;-59
2023/12/13 14:23:52;;;;;;;2.33;1.53;;;;;;;;;;6259211;22;20220;-54
2023/12/13 14:26:18;;;;;;;1.43;1.33;;;;;;;;;;6259886;22;20140;-58
2023/12/13 14:28:44;;;;;;;1.63;1.47;;;;;;;;;;6287474;22;20560;-59
2023/12/13 14:31:11;;;;;;;2.40;1.70;;;;;;;;;;6259443;22;20398;-57
2023/12/13 14:33:37;;;;;;;2.67;1.93;;;;;;;;;;6288605;22;20460;-56
2023/12/13 14:36:03;;;;;;;2.57;1.63;;;;;;;;;;6263492;22;20510;-58
2023/12/13 14:38:31;;;;;;;4.17;1.67;;;;;;;;;;6261305;22;20215;-58
2023/12/13 14:40:57;;;;;;;2.47;1.60;;;;;;;;;;6258622;22;20143;-57